Data for 07/02/2014

Time Sea-Level Adjusted Pressure Absolute Pressure Temperature Relative Humidity Dew Point   
(mb) (inHg) (mb) (inHg) (C) (F) (%) (C) (F)
00:05 1023 30.21 852 25.16 15.4 59.8 52 5.7 42.3
00:10 1023 30.21 852 25.16 15.4 59.7 52 5.7 42.3
00:15 1023 30.21 852 25.16 15.3 59.6 53 5.8 42.4
00:20 1023 30.21 852 25.16 15.3 59.5 53 5.8 42.5
00:25 1023 30.21 852 25.16 15.2 59.3 53 5.8 42.5
00:30 1023 30.21 852 25.16 15.1 59.2 54 5.9 42.6
00:35 1023 30.21 852 25.16 15 59 54 5.9 42.6
00:40 1023 30.21 852 25.16 15 59 54 5.9 42.7
00:45 1023 30.21 852 25.16 15 59 54 5.9 42.6
00:50 1023 30.21 852 25.16 14.9 58.9 55 6.1 42.9
00:55 1023 30.21 852 25.16 14.9 58.8 55 6 42.8
01:00 1023 30.21 852 25.16 14.9 58.9 55 6 42.9
01:05 1023 30.21 852 25.16 14.9 58.9 55 6 42.9
01:10 1023 30.21 852 25.16 15 58.9 55 6 42.8
01:15 1023 30.21 852 25.16 14.9 58.8 55 6.1 43
01:20 1023 30.21 852 25.16 14.8 58.6 55 6 42.9
01:25 1023 30.21 852 25.16 14.7 58.5 56 6.1 42.9
01:30 1022 30.18 852 25.16 14.7 58.4 56 6.1 42.9
01:35 1022 30.18 852 25.16 14.7 58.4 56 6 42.9
01:40 1022 30.18 852 25.16 14.6 58.2 57 6.1 43
01:45 1022 30.18 852 25.16 14.5 58.1 56 5.9 42.7
01:50 1022 30.18 852 25.16 14.6 58.3 56 6 42.7
01:55 1022 30.18 852 25.16 14.6 58.3 56 6 42.8
02:00 1022 30.18 852 25.16 14.5 58.1 56 6 42.8
02:05 1022 30.18 852 25.16 14.5 58.1 56 5.9 42.6
02:10 1022 30.18 852 25.16 14.5 58.1 56 5.9 42.7
02:15 1022 30.18 852 25.16 14.5 58 56 5.9 42.6
02:20 1023 30.21 852 25.16 14.5 58 56 6 42.7
02:25 1022 30.18 852 25.16 14.4 57.9 56 5.8 42.4
02:30 1022 30.18 852 25.16 14.3 57.8 57 5.9 42.7
02:35 1022 30.18 852 25.16 14.2 57.6 58 6 42.8
02:40 1022 30.18 852 25.16 14 57.2 58 6.1 42.9
02:45 1022 30.18 852 25.16 13.8 56.9 59 6 42.8
02:50 1022 30.18 852 25.16 13.8 56.8 59 6 42.7
02:55 1022 30.18 852 25.16 13.7 56.6 60 6 42.8
03:00 1022 30.18 852 25.16 13.6 56.4 60 6 42.9
03:05 1022 30.18 852 25.16 13.5 56.4 60 5.9 42.6
03:10 1022 30.18 852 25.16 13.6 56.4 60 6 42.8
03:15 1022 30.18 852 25.16 13.6 56.6 59 5.8 42.4
03:20 1022 30.18 852 25.16 13.7 56.6 59 5.9 42.7
03:25 1022 30.18 852 25.16 13.8 56.8 59 5.8 42.5
03:30 1022 30.18 852 25.16 13.7 56.7 58 5.8 42.4
03:35 1022 30.18 851 25.13 13.7 56.7 59 5.8 42.4
03:40 1022 30.18 851 25.13 13.7 56.6 59 5.8 42.4
03:45 1022 30.18 851 25.13 13.7 56.6 58 5.7 42.3
03:50 1022 30.18 851 25.13 13.7 56.6 58 5.7 42.2
03:55 1022 30.18 851 25.13 13.7 56.6 58 5.7 42.3
04:00 1022 30.18 851 25.13 13.7 56.6 58 5.7 42.3
04:05 1022 30.18 851 25.13 13.7 56.6 58 5.7 42.3
04:10 1022 30.18 851 25.13 13.6 56.5 59 5.7 42.3
04:15 1022 30.18 851 25.13 13.6 56.4 59 5.7 42.2
04:20 1022 30.18 852 25.16 13.7 56.6 58 5.7 42.2
04:25 1022 30.18 852 25.16 13.5 56.3 59 5.7 42.2
04:30 1022 30.18 852 25.16 13.5 56.2 59 5.7 42.3
04:35 1023 30.21 852 25.16 13.4 56 60 5.7 42.3
04:40 1023 30.21 852 25.16 13.2 55.7 60 5.7 42.3
04:45 1023 30.21 852 25.16 13 55.4 60 5.6 42.1
04:50 1023 30.21 852 25.16 12.9 55.3 61 5.6 42.1
04:55 1023 30.21 852 25.16 12.9 55.2 60 5.4 41.7
05:00 1023 30.21 852 25.16 12.9 55.1 61 5.5 41.9
05:05 1023 30.21 852 25.16 12.7 54.9 61 5.5 41.9
05:10 1023 30.21 852 25.16 12.7 54.8 61 5.3 41.5
05:15 1023 30.21 852 25.16 12.6 54.8 60 5.1 41.2
05:20 1023 30.21 852 25.16 12.7 54.8 60 5.2 41.3
05:25 1023 30.21 852 25.16 12.8 55 59 4.9 40.8
05:30 1023 30.21 852 25.16 12.9 55.2 58 5 40.9
05:35 1023 30.21 852 25.16 12.9 55.3 59 5.2 41.4
05:40 1023 30.21 852 25.16 12.8 55 60 5.3 41.6
05:45 1023 30.21 852 25.16 12.7 54.8 59 5 41
05:50 1023 30.21 852 25.16 12.8 55 58 4.8 40.6
05:55 1023 30.21 852 25.16 12.8 55.1 57 4.7 40.4
06:00 1023 30.21 852 25.16 13 55.4 56 4.5 40.1
06:05 1023 30.21 852 25.16 13.1 55.6 57 4.8 40.6
06:10 1023 30.21 852 25.16 13.2 55.8 57 4.9 40.8
06:15 1023 30.21 852 25.16 13.3 56 56 4.9 40.8
06:20 1023 30.21 852 25.16 13.5 56.3 56 4.9 40.8
06:25 1023 30.21 852 25.16 13.6 56.5 55 4.7 40.5
06:30 1023 30.21 852 25.16 13.8 56.8 54 4.7 40.4
06:35 1023 30.21 852 25.16 14.1 57.3 54 4.9 40.9
06:40 1023 30.21 852 25.16 14.3 57.8 53 5 41
06:45 1023 30.21 852 25.16 14.4 58 53 5 41
06:50 1022 30.18 852 25.16 14.7 58.4 53 5.2 41.3
06:55 1022 30.18 852 25.16 14.8 58.6 51 4.7 40.5
07:00 1022 30.18 852 25.16 15.1 59.2 51 5 41
07:05 1022 30.18 852 25.16 15.4 59.8 48 4.6 40.3
07:10 1022 30.18 852 25.16 15.6 60.1 50 5.2 41.4
07:15 1022 30.18 852 25.16 16 60.8 47 4.9 40.8
07:20 1022 30.18 852 25.16 16.2 61.1 46 4.7 40.5
07:25 1022 30.18 852 25.16 16.4 61.4 46 4.7 40.5
07:30 1022 30.18 852 25.16 16.6 61.8 46 4.9 40.9
07:35 1022 30.18 852 25.16 16.7 62 45 4.9 40.8
07:40 1022 30.18 851 25.13 17 62.6 45 5.1 41.3
07:45 1022 30.18 851 25.13 17.3 63.2 44 5.1 41.1
07:50 1022 30.18 851 25.13 17.5 63.5 44 5.1 41.2
07:55 1022 30.18 851 25.13 17.7 63.9 43 5.1 41.2
08:00 1022 30.18 851 25.13 17.9 64.2 43 5.3 41.6
08:05 1022 30.18 851 25.13 18 64.4 43 5.3 41.5
08:10 1022 30.18 851 25.13 18.2 64.7 43 5.4 41.8
08:15 1022 30.18 851 25.13 18.4 65.2 42 5.6 42
08:20 1022 30.18 851 25.13 18.6 65.5 42 5.5 41.9
08:25 1022 30.18 851 25.13 18.9 66.1 41 5.5 41.8
08:30 1022 30.18 851 25.13 18.9 66.1 41 5.4 41.7
08:35 1022 30.18 851 25.13 19.3 66.7 40 5.5 41.8
08:40 1022 30.18 851 25.13 19.7 67.4 40 5.8 42.4
08:45 1022 30.18 851 25.13 20.1 68.2 40 6.3 43.3
08:50 1022 30.18 851 25.13 19.6 67.2 44 7 44.6
08:55 1022 30.18 851 25.13 19.7 67.4 41 6.3 43.3
09:00 1022 30.18 851 25.13 20 68 42 6.8 44.3
09:05 1022 30.18 851 25.13 19.8 67.6 42 6.7 44
09:10 1022 30.18 851 25.13 20.2 68.4 42 7 44.7
09:15 1022 30.18 851 25.13 20.4 68.7 40 6.6 43.9
09:20 1022 30.18 851 25.13 19.8 67.6 43 7 44.6
09:25 1022 30.18 851 25.13 20.4 68.8 41 7 44.7
09:30 1022 30.18 851 25.13 20.8 69.5 39 6.6 43.8
09:35 1022 30.18 851 25.13 21.1 70.1 40 7.1 44.8
09:40 1022 30.18 851 25.13 20.5 68.8 41 7 44.6
09:45 1022 30.18 851 25.13 21.1 70 40 7.3 45.1
09:50 1021 30.15 851 25.13 21.2 70.2 41 7.5 45.4
09:55 1021 30.15 851 25.13 21.4 70.5 38 6.6 43.9
10:00 1021 30.15 851 25.13 21.8 71.2 38 7 44.6
10:05 1021 30.15 851 25.13 22.5 72.5 35 6.5 43.7
10:10 1021 30.15 851 25.13 22 71.6 36 6.6 43.9
10:15 1021 30.15 851 25.13 22.1 71.8 37 6.9 44.3
10:20 1021 30.15 851 25.13 22.5 72.5 36 6.9 44.4
10:25 1021 30.15 851 25.13 23.1 73.6 34 6.8 44.2
10:30 1021 30.15 850 25.1 22.6 72.6 36 7.1 44.8
10:35 1021 30.15 850 25.1 22.3 72.1 37 7.2 45
10:40 1021 30.15 850 25.1 22.6 72.6 34 6.2 43.2
10:45 1021 30.15 850 25.1 22 71.6 37 7 44.6
10:50 1021 30.15 850 25.1 22.3 72.2 34 5.8 42.4
10:55 1021 30.15 850 25.1 22.3 72.1 36 6.8 44.3
11:00 1021 30.15 850 25.1 22.5 72.5 36 6.7 44.1
11:05 1021 30.15 850 25.1 23.8 74.9 33 6.8 44.2
11:10 1021 30.15 850 25.1 24.3 75.8 32 7 44.5
11:15 1021 30.15 850 25.1 24.6 76.3 33 7.3 45.2
11:20 1021 30.15 850 25.1 23.8 74.9 34 7.2 44.9
11:25 1021 30.15 850 25.1 24.4 75.8 32 6.8 44.2
11:30 1021 30.15 850 25.1 25 76.9 32 7.2 45
11:35 1021 30.15 850 25.1 25.3 77.5 33 8 46.3
11:40 1021 30.15 850 25.1 24.3 75.8 34 7.5 45.5
11:45 1021 30.15 850 25.1 24.2 75.6 33 7.3 45.1
11:50 1021 30.15 850 25.1 24.4 76 33 7.1 44.9
11:55 1021 30.15 850 25.1 24.7 76.4 34 7.9 46.2
12:00 1021 30.15 850 25.1 25.1 77.1 33 8 46.5
12:05 1021 30.15 850 25.1 25.4 77.6 32 7.8 46
12:10 1021 30.15 850 25.1 25.1 77.2 33 7.9 46.2
12:15 1020 30.12 850 25.1 25 76.9 33 7.9 46.3
12:20 1020 30.12 850 25.1 25.2 77.4 31 7.2 44.9
12:25 1020 30.12 850 25.1 25.3 77.5 34 8.5 47.3
12:30 1020 30.12 850 25.1 24.7 76.4 33 7.5 45.6
12:35 1020 30.12 850 25.1 24.4 76 33 7.5 45.5
12:40 1020 30.12 850 25.1 25.5 77.8 31 7.3 45.2
12:45 1020 30.12 850 25.1 25.8 78.4 31 7.7 45.9
12:50 1020 30.12 850 25.1 26.5 79.8 30 7.6 45.8
12:55 1020 30.12 850 25.1 26.9 80.4 30 8 46.3
13:00 1020 30.12 849 25.07 26.4 79.5 32 8.5 47.4
13:05 1020 30.12 849 25.07 26.3 79.3 31 8.2 46.7
13:10 1020 30.12 849 25.07 27.6 81.6 28 7.5 45.5
13:15 1020 30.12 849 25.07 28.1 82.5 26 6.8 44.3
13:20 1020 30.12 849 25.07 27.6 81.7 27 7.2 45
13:25 1020 30.12 849 25.07 27.7 81.8 27 7.4 45.4
13:30 1020 30.12 849 25.07 27.5 81.5 30 8.4 47.2
13:35 1020 30.12 849 25.07 27.5 81.4 28 7.5 45.5
13:40 1020 30.12 849 25.07 27.6 81.8 26 6.9 44.5
13:45 1020 30.12 849 25.07 27.7 81.8 27 7.1 44.8
13:50 1020 30.12 849 25.07 27.6 81.7 27 7.2 45
13:55 1020 30.12 849 25.07 27.6 81.6 27 7.3 45.1
14:00 1020 30.12 849 25.07 28 82.5 26 7.2 45
14:05 1020 30.12 849 25.07 27.6 81.6 28 7.7 45.9
14:10 1020 30.12 849 25.07 28.3 83 25 6.9 44.3
14:15 1020 30.12 849 25.07 28.5 83.2 26 7.2 44.9
14:20 1020 30.12 849 25.07 27.7 81.9 26 6.7 44
14:25 1020 30.12 849 25.07 27.9 82.2 25 6.4 43.5
14:30 1020 30.12 849 25.07 28.2 82.7 26 6.9 44.5
14:35 1020 30.12 849 25.07 28.4 83.1 25 6.7 44
14:40 1020 30.12 849 25.07 28.4 83.2 25 6.8 44.3
14:45 1020 30.12 849 25.07 28.6 83.4 24 6 42.9
14:50 1020 30.12 849 25.07 28.5 83.3 26 7.2 45
14:55 1019 30.09 849 25.07 28.2 82.7 25 6.7 44
15:00 1019 30.09 849 25.07 28.3 82.9 26 7 44.6
15:05 1019 30.09 849 25.07 28 82.4 25 6.2 43.2
15:10 1019 30.09 849 25.07 28.4 83 26 7.2 44.9
15:15 1019 30.09 848 25.04 28.2 82.8 25 6.9 44.4
15:20 1019 30.09 848 25.04 28.2 82.8 25 6.4 43.5
15:25 1019 30.09 848 25.04 28.2 82.8 24 6.2 43.2
15:30 1019 30.09 848 25.04 28.7 83.6 24 6.4 43.5
15:35 1019 30.09 848 25.04 28.3 82.9 25 6.7 44
15:40 1019 30.09 848 25.04 28.5 83.3 25 6.8 44.2
15:45 1019 30.09 848 25.04 28.3 83 27 7.8 46
15:50 1019 30.09 848 25.04 28.1 82.7 26 7.2 44.9
15:55 1019 30.09 848 25.04 28.7 83.7 27 8.1 46.6
16:00 1019 30.09 848 25.04 28.5 83.3 26 7.3 45.2
16:05 1019 30.09 848 25.04 28 82.3 27 7.6 45.6
16:10 1019 30.09 848 25.04 28 82.3 27 7.7 45.8
16:15 1019 30.09 848 25.04 28.1 82.5 27 7.5 45.5
16:20 1019 30.09 848 25.04 27.9 82.3 27 7.7 45.8
16:25 1019 30.09 848 25.04 28.3 82.9 27 7.8 46
16:30 1019 30.09 848 25.04 27.9 82.3 27 7.5 45.5
16:35 1019 30.09 848 25.04 27.6 81.7 28 7.8 46.1
16:40 1019 30.09 848 25.04 28 82.3 26 7.2 44.9
16:45 1019 30.09 848 25.04 27.6 81.6 28 7.5 45.6
16:50 1019 30.09 848 25.04 27.4 81.3 29 8 46.5
16:55 1019 30.09 848 25.04 27.4 81.3 28 7.6 45.6
17:00 1018 30.06 848 25.04 27.5 81.5 28 7.9 46.2
17:05 1018 30.06 848 25.04 27.6 81.7 28 7.9 46.2
17:10 1018 30.06 848 25.04 27.4 81.3 28 7.7 45.8
17:15 1018 30.06 848 25.04 27.3 81.1 27 7.1 44.9
17:20 1018 30.06 848 25.04 27 80.6 29 7.6 45.7
17:25 1018 30.06 848 25.04 26.9 80.5 28 7 44.6
17:30 1018 30.06 847 25.01 27 80.5 27 6.8 44.3
17:35 1018 30.06 847 25.01 26.9 80.4 27 6.6 43.9
17:40 1018 30.06 847 25.01 26.6 79.9 28 6.7 44
17:45 1018 30.06 847 25.01 26.6 79.8 27 6.3 43.4
17:50 1018 30.06 847 25.01 26.6 79.8 27 6.4 43.5
17:55 1018 30.06 847 25.01 26.5 79.7 27 6.5 43.7
18:00 1018 30.06 847 25.01 26.5 79.7 26 6 42.8
18:05 1018 30.06 847 25.01 26.4 79.4 27 6.2 43.1
18:10 1018 30.06 847 25.01 26.2 79.2 27 6.1 43
18:15 1018 30.06 847 25.01 26.1 79 26 5.6 42.1
18:20 1018 30.06 847 25.01 26 78.9 27 5.6 42.2
18:25 1018 30.06 847 25.01 25.9 78.7 26 5.2 41.4
18:30 1018 30.06 847 25.01 25.8 78.5 27 5.7 42.3
18:35 1018 30.06 847 25.01 25.7 78.2 27 5.6 42.1
18:40 1018 30.06 847 25.01 25.5 77.9 28 5.7 42.2
18:45 1018 30.06 847 25.01 25.3 77.6 28 6 42.7
18:50 1018 30.06 847 25.01 25.2 77.3 29 6.2 43.2
18:55 1018 30.06 847 25.01 25 77 29 6.2 43.2
19:00 1018 30.06 847 25.01 24.9 76.7 30 6.2 43.2
19:05 1018 30.06 847 25.01 24.7 76.4 30 6.3 43.3
19:10 1018 30.06 847 25.01 24.5 76.1 30 6.2 43.2
19:15 1018 30.06 847 25.01 24.3 75.8 31 6.2 43.1
19:20 1018 30.06 847 25.01 24.3 75.7 31 6.2 43.1
19:25 1018 30.06 847 25.01 24.2 75.5 31 6.2 43.2
19:30 1018 30.06 847 25.01 24 75.3 31 6.3 43.3
19:35 1018 30.06 847 25.01 23.9 74.9 32 6.6 43.8
19:40 1018 30.06 847 25.01 23.6 74.6 33 6.5 43.6
19:45 1018 30.06 847 25.01 23.4 74.1 34 6.7 44.1
19:50 1018 30.06 847 25.01 23.1 73.5 35 6.9 44.5
19:55 1018 30.06 847 25.01 22.8 73.1 34 6.5 43.7
20:00 1018 30.06 847 25.01 22.8 73.1 34 6.5 43.7
20:05 1018 30.06 848 25.04 22.8 73 34 6.5 43.7
20:10 1018 30.06 848 25.04 22.7 72.9 35 6.6 43.8
20:15 1018 30.06 848 25.04 22.7 72.8 34 6.3 43.3
20:20 1018 30.06 848 25.04 22.7 72.9 34 6.2 43.2
20:25 1018 30.06 848 25.04 22.7 72.8 34 6.4 43.4
20:30 1019 30.09 848 25.04 22.7 72.8 34 6.1 43
20:35 1019 30.09 848 25.04 22.6 72.6 35 6.4 43.5
20:40 1018 30.06 848 25.04 22.5 72.5 34 6.2 43.2
20:45 1018 30.06 848 25.04 22.5 72.5 34 6.2 43.1
20:50 1019 30.09 848 25.04 22.4 72.4 35 6.4 43.5
20:55 1019 30.09 848 25.04 22.5 72.4 34 6.1 42.9
21:00 1019 30.09 848 25.04 22.5 72.5 34 6.1 43
21:05 1019 30.09 848 25.04 22.4 72.2 35 6.2 43.2
21:10 1019 30.09 848 25.04 22.3 72.1 34 5.9 42.6
21:15 1019 30.09 848 25.04 22.3 72.1 35 6.1 42.9
21:20 1019 30.09 848 25.04 22.2 71.9 35 6 42.8
21:25 1019 30.09 848 25.04 22 71.7 35 6 42.8
21:30 1019 30.09 848 25.04 21.9 71.5 35 5.8 42.5
21:35 1019 30.09 848 25.04 21.8 71.2 35 5.9 42.7
21:40 1019 30.09 848 25.04 21.7 71 35 5.9 42.7
21:45 1019 30.09 848 25.04 21.6 70.9 36 6 42.7
21:50 1019 30.09 848 25.04 21.5 70.7 36 5.9 42.6
21:55 1019 30.09 848 25.04 21.4 70.5 37 6.2 43.1
22:00 1019 30.09 848 25.04 21.2 70.2 37 6.1 42.9
22:05 1019 30.09 848 25.04 21.2 70.2 37 6.2 43.1
22:10 1019 30.09 848 25.04 21.2 70.2 37 6.2 43.1
22:15 1019 30.09 848 25.04 21.1 69.9 38 6.3 43.3
22:20 1019 30.09 848 25.04 20.9 69.6 38 6.3 43.3
22:25 1019 30.09 848 25.04 20.9 69.6 38 6.2 43.2
22:30 1019 30.09 848 25.04 20.9 69.5 39 6.4 43.5
22:35 1019 30.09 848 25.04 20.6 69.1 39 6.5 43.6
22:40 1019 30.09 848 25.04 20.5 68.8 40 6.5 43.7
22:45 1019 30.09 848 25.04 20.5 68.8 39 6.4 43.4
22:50 1019 30.09 848 25.04 20.5 68.9 39 6.3 43.4
22:55 1019 30.09 848 25.04 20.5 68.8 40 6.5 43.7
23:00 1019 30.09 848 25.04 20.3 68.5 40 6.6 43.8
23:05 1019 30.09 848 25.04 20.2 68.4 40 6.5 43.7
23:10 1019 30.09 848 25.04 20.1 68.2 41 6.6 43.9
23:15 1019 30.09 848 25.04 19.9 67.9 42 6.8 44.2
23:20 1019 30.09 848 25.04 19.8 67.7 42 6.7 44
23:25 1019 30.09 848 25.04 19.7 67.5 42 6.7 44.1
23:30 1019 30.09 848 25.04 19.7 67.5 42 6.6 43.8
23:35 1019 30.09 848 25.04 19.7 67.4 42 6.6 43.9
23:40 1019 30.09 848 25.04 19.7 67.4 42 6.5 43.7
23:45 1019 30.09 848 25.04 19.7 67.4 42 6.7 44
23:50 1019 30.09 848 25.04 19.6 67.2 43 6.7 44.1
23:55 1019 30.09 848 25.04 19.5 67 43 6.8 44.2
24:00 1019 30.09 848 25.04 19.4 66.9 43 6.6 43.9